createdAt,value
2018-01-02T00:00:16.913Z,49.02
2018-01-02T00:02:42.853Z,48.79
2018-01-02T00:05:08.795Z,49.09
2018-01-02T00:07:34.747Z,49.29
2018-01-02T00:10:00.716Z,49.51
2018-01-02T00:12:26.676Z,49.27
2018-01-02T00:14:52.754Z,49.20
2018-01-02T00:17:18.710Z,49.49
2018-01-02T00:19:44.652Z,49.14
2018-01-02T00:22:10.641Z,48.87
2018-01-02T00:24:36.599Z,48.59
2018-01-02T00:27:02.566Z,48.73
2018-01-02T00:29:28.638Z,49.11
2018-01-02T00:31:54.634Z,49.22
2018-01-02T00:34:20.614Z,49.38
2018-01-02T00:36:46.549Z,49.07
2018-01-02T00:39:12.494Z,48.78
2018-01-02T00:41:38.458Z,48.91
2018-01-02T00:44:04.465Z,49.09
2018-01-02T00:46:30.410Z,49.23
2018-01-02T00:48:56.383Z,49.38
2018-01-02T00:51:22.337Z,49.70
2018-01-02T00:53:48.314Z,49.32
2018-01-02T00:56:14.257Z,49.34
2018-01-02T00:58:40.277Z,49.61
2018-01-02T01:01:06.220Z,49.64
2018-01-02T01:03:32.183Z,49.46
2018-01-02T01:05:58.170Z,49.57
2018-01-02T01:08:24.133Z,49.27
2018-01-02T01:10:50.101Z,48.93
2018-01-02T01:13:16.044Z,48.98
2018-01-02T01:15:42.030Z,48.98
2018-01-02T01:18:09.065Z,49.23
2018-01-02T01:20:35.021Z,49.00
2018-01-02T01:23:00.977Z,49.11
2018-01-02T01:25:26.946Z,49.43
2018-01-02T01:27:52.893Z,48.96
2018-01-02T01:30:18.830Z,48.97
2018-01-02T01:32:44.806Z,49.11
2018-01-02T01:35:10.858Z,49.35
2018-01-02T01:37:36.805Z,48.94
2018-01-02T01:40:02.768Z,49.72
2018-01-02T01:42:28.875Z,49.97
2018-01-02T01:44:54.813Z,49.50
2018-01-02T01:47:20.758Z,49.46
2018-01-02T01:49:46.723Z,49.91
2018-01-02T01:52:12.673Z,49.89
2018-01-02T01:54:38.634Z,49.34
2018-01-02T01:57:04.576Z,49.34
2018-01-02T01:59:30.547Z,49.11
2018-01-02T02:01:56.509Z,48.89
2018-01-02T02:04:22.456Z,49.03
2018-01-02T02:06:48.395Z,49.23
2018-01-02T02:09:14.358Z,49.28
2018-01-02T02:11:40.319Z,49.17
2018-01-02T02:14:06.282Z,48.94
2018-01-02T02:16:32.256Z,49.07
2018-01-02T02:18:58.210Z,49.32
2018-01-02T02:21:24.244Z,49.03
2018-01-02T02:23:50.193Z,49.14
2018-01-02T02:26:16.181Z,49.45
2018-01-02T02:28:42.143Z,49.69
2018-01-02T02:31:08.081Z,49.57
2018-01-02T02:33:34.031Z,50.16
2018-01-02T02:35:59.991Z,49.76
2018-01-02T02:38:25.953Z,50.36
2018-01-02T02:40:51.910Z,50.07
2018-01-02T02:43:17.857Z,49.73
2018-01-02T02:45:43.791Z,49.20
2018-01-02T02:48:09.744Z,49.32
2018-01-02T02:50:35.735Z,49.26
2018-01-02T02:53:01.678Z,49.41
2018-01-02T02:55:27.661Z,49.44
2018-01-02T02:57:53.602Z,49.50
2018-01-02T03:00:19.562Z,49.31
2018-01-02T03:02:45.510Z,49.50
2018-01-02T03:05:11.452Z,49.22
2018-01-02T03:07:37.411Z,49.34
2018-01-02T03:10:03.378Z,49.67
2018-01-02T03:12:29.362Z,49.49
2018-01-02T03:14:55.310Z,49.66
2018-01-02T03:17:21.275Z,50.06
2018-01-02T03:19:47.230Z,49.53
2018-01-02T03:22:13.173Z,49.39
2018-01-02T03:24:39.127Z,49.68
2018-01-02T03:27:05.069Z,50.12
2018-01-02T03:29:32.073Z,50.18
2018-01-02T03:31:58.024Z,50.01
2018-01-02T03:34:23.958Z,49.38
2018-01-02T03:36:49.929Z,49.23
2018-01-02T03:39:15.950Z,49.42
2018-01-02T03:41:41.900Z,49.17
2018-01-02T03:44:07.894Z,49.44
2018-01-02T03:46:33.857Z,49.24
2018-01-02T03:48:59.792Z,49.01
2018-01-02T03:51:25.765Z,49.26
2018-01-02T03:53:51.717Z,49.15
2018-01-02T03:56:17.685Z,49.01
2018-01-02T03:58:43.635Z,48.80
2018-01-02T04:01:09.585Z,49.03
2018-01-02T04:03:35.549Z,48.78
2018-01-02T04:06:01.518Z,48.88
2018-01-02T04:08:27.465Z,48.98
2018-01-02T04:10:53.418Z,48.96
2018-01-02T04:13:19.378Z,49.03
2018-01-02T04:15:45.345Z,49.35
2018-01-02T04:18:11.582Z,49.18
2018-01-02T04:20:38.636Z,48.98
2018-01-02T04:23:05.482Z,48.68
2018-01-02T04:25:31.430Z,48.79
2018-01-02T04:27:57.377Z,48.71
2018-01-02T04:30:23.329Z,48.29
2018-01-02T07:54:25.886Z,49.58
2018-01-02T07:56:51.834Z,49.29
2018-01-02T07:59:17.802Z,49.12
2018-01-02T08:01:43.874Z,49.10
2018-01-02T08:04:09.838Z,49.11
2018-01-02T08:06:35.788Z,49.15
2018-01-02T08:09:01.730Z,48.99
2018-01-02T08:11:27.705Z,49.27
2018-01-02T08:13:54.754Z,49.08
2018-01-02T08:16:20.709Z,49.38
2018-01-02T08:18:46.662Z,49.47
2018-01-02T08:21:12.633Z,49.05
2018-01-02T08:23:38.582Z,48.82
2018-01-02T08:26:04.541Z,48.99
2018-01-02T08:28:30.509Z,48.76
2018-01-02T08:30:56.473Z,49.29
2018-01-02T08:33:22.454Z,48.63
2018-01-02T08:35:48.412Z,48.68
2018-01-02T08:38:14.373Z,48.64
2018-01-02T08:40:40.356Z,48.79
2018-01-02T08:43:06.316Z,48.79
2018-01-02T08:45:32.257Z,48.81
2018-01-02T08:47:58.227Z,48.97
2018-01-02T08:50:24.209Z,48.76
2018-01-02T08:52:50.166Z,48.88
2018-01-02T08:55:16.119Z,49.11
2018-01-02T08:57:42.074Z,48.92
2018-01-02T09:00:08.184Z,48.94
2018-01-02T09:02:34.169Z,49.08
2018-01-02T09:05:00.115Z,48.76
2018-01-02T09:07:26.198Z,48.63
2018-01-02T09:09:52.153Z,48.88
2018-01-02T09:12:18.140Z,48.70
2018-01-02T09:14:44.248Z,48.38
2018-01-02T09:17:10.196Z,48.49
2018-01-02T09:19:36.170Z,48.14
2018-01-02T09:22:02.092Z,48.92
2018-01-02T09:24:28.037Z,48.32
2018-01-02T09:26:54.011Z,48.21
2018-01-02T09:29:19.962Z,47.91
2018-01-02T09:31:45.926Z,49.13
2018-01-02T09:34:11.862Z,48.43
2018-01-02T09:36:37.812Z,48.22
2018-01-02T09:39:03.744Z,48.50
2018-01-02T09:41:29.692Z,48.41
2018-01-02T09:43:55.638Z,48.68
2018-01-02T09:46:21.602Z,48.92
2018-01-02T09:48:47.582Z,48.73
2018-01-02T09:51:13.539Z,48.87
2018-01-02T09:53:39.671Z,48.70
2018-01-02T09:56:05.639Z,48.96
2018-01-02T09:58:31.581Z,47.50
2018-01-02T10:00:57.539Z,48.07
2018-01-02T10:03:23.644Z,48.13
2018-01-02T10:05:49.609Z,47.70
2018-01-02T10:08:15.590Z,48.56
2018-01-02T10:10:41.554Z,48.24
2018-01-02T10:13:07.518Z,48.29
2018-01-02T10:15:33.522Z,47.82
2018-01-02T10:17:59.469Z,47.99
2018-01-02T10:20:25.441Z,48.04
2018-01-02T10:22:51.435Z,48.05
2018-01-02T10:25:17.387Z,48.35
2018-01-02T10:27:43.341Z,48.61
2018-01-02T10:30:09.335Z,48.22
2018-01-02T10:32:35.304Z,48.34
2018-01-02T10:35:01.283Z,48.14
2018-01-02T10:37:27.236Z,48.74
2018-01-02T10:39:53.183Z,48.82
2018-01-02T10:42:19.134Z,48.75
2018-01-02T10:44:45.226Z,48.91
2018-01-02T10:47:11.193Z,48.36
2018-01-02T10:49:37.383Z,47.87
2018-01-02T10:52:03.385Z,48.44
2018-01-02T10:54:29.402Z,48.33
2018-01-02T10:56:55.373Z,48.66
2018-01-02T10:59:21.322Z,48.44
2018-01-02T11:01:47.325Z,48.20
2018-01-02T11:04:13.365Z,48.64
2018-01-02T11:06:39.341Z,48.44
2018-01-02T11:09:05.508Z,48.37
2018-01-02T11:11:31.592Z,48.07
2018-01-02T11:13:57.555Z,48.88
2018-01-02T11:16:23.661Z,49.09
2018-01-02T11:18:49.810Z,48.51
2018-01-02T11:21:15.782Z,48.25
2018-01-02T11:23:41.757Z,48.21
2018-01-02T11:26:07.840Z,48.53
2018-01-02T11:28:33.781Z,48.55
2018-01-02T11:30:59.720Z,48.20
2018-01-02T11:33:25.673Z,48.59
2018-01-02T11:35:51.641Z,47.87
2018-01-02T11:38:17.755Z,47.67
2018-01-02T11:40:43.725Z,48.98
2018-01-02T11:43:09.681Z,48.10
2018-01-02T11:45:35.653Z,48.34
2018-01-02T11:48:01.638Z,47.98
2018-01-02T11:53:08.998Z,48.49
2018-01-02T11:55:34.971Z,48.02
2018-01-02T11:58:02.160Z,48.88
2018-01-02T12:00:28.214Z,48.27
2018-01-02T12:02:54.203Z,49.12
2018-01-02T12:05:20.158Z,48.53
2018-01-02T12:07:46.141Z,48.20
2018-01-02T12:10:12.118Z,48.26
2018-01-02T12:12:38.107Z,48.43
2018-01-02T12:15:04.074Z,48.54
2018-01-02T12:17:30.068Z,48.22
2018-01-02T12:19:56.021Z,48.00
2018-01-02T12:22:22.009Z,47.92
2018-01-02T12:24:47.982Z,49.30
2018-01-02T12:27:13.945Z,48.16
2018-01-02T12:29:40.081Z,47.93
2018-01-02T12:32:06.041Z,48.17
2018-01-02T12:34:32.006Z,48.24
2018-01-02T12:37:02.683Z,47.87
2018-01-02T12:39:28.663Z,48.74
2018-01-02T12:41:54.620Z,49.07
2018-01-02T12:44:20.572Z,47.35
2018-01-02T12:46:46.547Z,46.72
2018-01-02T12:49:12.533Z,46.07
2018-01-02T12:51:38.497Z,46.49
2018-01-02T12:54:04.453Z,47.36
2018-01-02T12:56:30.585Z,47.28
2018-01-02T12:58:56.697Z,47.53
2018-01-02T13:01:22.870Z,47.78
2018-01-02T13:03:48.980Z,48.05
2018-01-02T13:06:14.962Z,47.96
2018-01-02T13:08:40.904Z,47.83
2018-01-02T13:11:06.889Z,47.56
2018-01-02T13:13:32.981Z,47.34
2018-01-02T13:15:59.101Z,47.34
2018-01-02T13:18:25.082Z,47.53
2018-01-02T13:20:51.177Z,47.81
2018-01-02T13:23:17.117Z,47.68
2018-01-02T13:25:43.085Z,47.70
2018-01-02T13:28:09.202Z,48.06
2018-01-02T13:30:35.382Z,47.93
2018-01-02T13:33:01.494Z,47.92
2018-01-02T13:35:27.653Z,48.06
2018-01-02T13:37:53.659Z,48.14
2018-01-02T13:40:19.714Z,48.53
2018-01-02T13:42:45.881Z,48.48
2018-01-02T13:45:12.031Z,48.76
2018-01-02T13:47:38.133Z,48.89
2018-01-02T13:50:04.123Z,48.47
2018-01-02T13:52:30.077Z,48.43
2018-01-02T13:54:56.045Z,48.43
2018-01-02T13:57:22.120Z,48.27
2018-01-02T13:59:48.074Z,48.04
2018-01-02T14:02:14.030Z,47.88
2018-01-02T14:04:40.017Z,48.07
2018-01-02T14:07:05.981Z,47.77
2018-01-02T14:09:32.015Z,47.73
2018-01-02T14:11:57.990Z,47.85
2018-01-02T14:14:23.950Z,47.83
2018-01-02T14:16:50.029Z,47.94
2018-01-02T14:19:16.034Z,48.10
2018-01-02T14:21:42.078Z,48.27
2018-01-02T14:24:09.084Z,48.30
2018-01-02T16:35:56.490Z,48.98
2018-01-02T16:38:22.585Z,49.50
2018-01-02T16:40:48.606Z,49.08
2018-01-02T16:43:14.514Z,48.63
2018-01-02T16:45:40.491Z,48.73
2018-01-02T16:48:06.465Z,49.07
2018-01-02T16:50:32.457Z,49.34
2018-01-02T16:52:58.413Z,49.45
2018-01-02T16:55:24.373Z,49.35
2018-01-02T16:57:50.377Z,49.18
2018-01-02T17:00:16.317Z,49.91
2018-01-02T17:02:42.284Z,49.62
2018-01-02T17:05:08.230Z,49.60
2018-01-02T17:07:34.213Z,49.56
2018-01-02T17:10:00.205Z,49.42
2018-01-02T17:12:26.156Z,49.37
2018-01-02T17:14:52.128Z,49.30
2018-01-02T17:17:18.077Z,49.03
2018-01-02T17:19:44.029Z,49.24
2018-01-02T17:22:09.989Z,49.02
2018-01-02T17:24:35.937Z,48.87
2018-01-02T17:27:01.906Z,48.69
2018-01-02T17:29:27.919Z,49.24
2018-01-02T17:31:53.903Z,49.15
2018-01-02T17:34:19.846Z,49.38
2018-01-02T17:36:45.834Z,49.46
2018-01-02T17:39:11.793Z,49.33
2018-01-02T17:41:37.738Z,49.63
2018-01-02T17:44:03.725Z,49.54
2018-01-02T17:46:29.685Z,49.38
2018-01-02T17:48:55.657Z,49.65
2018-01-02T17:51:21.606Z,49.59
2018-01-02T17:53:47.562Z,49.60
2018-01-02T17:56:13.605Z,49.78
2018-01-02T17:58:39.550Z,49.60
2018-01-02T18:01:05.521Z,49.97
2018-01-02T18:03:31.660Z,49.69
2018-01-02T18:05:57.630Z,49.27
2018-01-02T18:08:23.598Z,49.03
2018-01-02T18:10:49.565Z,48.78
2018-01-02T18:13:15.533Z,48.69
2018-01-02T18:15:41.505Z,49.00
2018-01-02T18:18:07.549Z,48.75
2018-01-02T18:20:33.507Z,49.09
2018-01-02T18:22:59.450Z,49.36
2018-01-02T18:25:25.416Z,49.61
2018-01-02T18:27:51.395Z,49.49
2018-01-02T18:30:17.375Z,49.71
2018-01-02T18:32:43.322Z,49.53
2018-01-02T18:35:09.270Z,49.81
2018-01-02T18:37:35.282Z,49.93
2018-01-02T18:40:01.241Z,49.85
2018-01-02T18:42:27.205Z,50.02
2018-01-02T18:44:53.185Z,49.80
2018-01-02T18:47:19.129Z,49.79
2018-01-02T18:49:45.179Z,49.74
2018-01-02T18:52:11.376Z,49.69
2018-01-02T18:54:37.321Z,49.68
2018-01-02T18:57:03.277Z,49.34
2018-01-02T18:59:29.238Z,49.27
2018-01-02T19:01:55.179Z,49.26
2018-01-02T19:04:21.173Z,49.37
2018-01-02T19:06:47.149Z,49.58
2018-01-02T19:09:13.106Z,49.63
2018-01-02T19:11:39.067Z,49.78
2018-01-02T19:14:05.050Z,49.61
2018-01-02T19:16:31.007Z,50.19
2018-01-02T19:18:56.951Z,50.77
2018-01-02T19:21:22.941Z,50.91
2018-01-02T19:23:48.908Z,50.74
2018-01-02T19:26:14.963Z,50.54
2018-01-02T19:28:40.963Z,50.63
2018-01-02T19:31:06.914Z,50.70
2018-01-02T19:33:32.937Z,50.59
2018-01-02T19:35:58.909Z,50.28
2018-01-02T19:38:24.874Z,50.45
2018-01-02T19:40:50.847Z,49.99
2018-01-02T19:43:16.817Z,49.99
2018-01-02T19:45:42.802Z,49.66
2018-01-02T19:48:08.790Z,49.84
2018-01-02T19:50:35.152Z,49.88
2018-01-02T19:53:01.095Z,49.95
2018-01-02T19:55:27.208Z,49.94
2018-01-02T19:57:53.162Z,50.12
2018-01-02T20:00:19.143Z,50.11
2018-01-02T20:02:45.250Z,50.09
2018-01-02T20:05:11.210Z,50.23
2018-01-02T20:07:37.182Z,50.24
2018-01-02T20:10:03.126Z,50.48
2018-01-02T20:12:29.082Z,50.64
2018-01-02T20:14:55.034Z,50.66
2018-01-02T20:17:21.009Z,50.54
2018-01-02T20:19:46.976Z,50.56
2018-01-02T20:22:12.950Z,50.60
2018-01-02T20:24:38.897Z,50.45
2018-01-02T20:27:04.878Z,50.26
2018-01-02T20:29:30.838Z,50.08
2018-01-02T20:31:56.798Z,50.21
2018-01-02T20:34:22.762Z,50.23
2018-01-02T20:36:48.715Z,50.20
2018-01-02T20:39:14.694Z,50.45
2018-01-02T20:41:40.721Z,50.45
2018-01-02T20:44:06.684Z,50.12
2018-01-02T20:46:32.653Z,50.51
2018-01-02T20:48:58.617Z,50.55
2018-01-02T20:51:24.617Z,50.34
2018-01-02T20:53:50.582Z,50.92
2018-01-02T20:56:16.550Z,50.41
2018-01-02T20:58:42.517Z,50.67
2018-01-02T21:01:08.462Z,51.19
2018-01-02T21:03:34.437Z,50.92
2018-01-02T21:06:00.441Z,50.83
2018-01-02T21:08:26.396Z,50.88
2018-01-02T21:10:52.372Z,51.01
2018-01-02T21:13:18.321Z,51.01
2018-01-02T21:15:44.297Z,50.90
2018-01-02T21:18:10.239Z,50.72
2018-01-02T21:20:36.209Z,51.26
2018-01-02T21:23:02.175Z,51.26
2018-01-02T21:25:28.113Z,51.32
2018-01-02T21:27:54.110Z,51.10
2018-01-02T21:30:20.037Z,50.81
2018-01-02T21:32:46.006Z,50.66
2018-01-02T21:35:11.950Z,50.80
2018-01-02T21:37:37.920Z,50.84
2018-01-02T21:40:03.869Z,50.70
2018-01-02T21:42:29.841Z,50.73
2018-01-02T21:44:55.833Z,50.94
2018-01-02T21:47:21.806Z,50.85
2018-01-02T21:49:47.771Z,51.01
2018-01-02T21:52:13.724Z,50.83
2018-01-02T21:54:39.673Z,51.14
2018-01-02T21:57:05.625Z,51.03
2018-01-02T21:59:31.574Z,51.06
2018-01-02T22:01:57.541Z,50.92
2018-01-02T22:04:23.497Z,50.72
2018-01-02T22:06:49.473Z,50.17
2018-01-02T22:09:15.428Z,50.31
2018-01-02T22:11:41.392Z,50.30
2018-01-02T22:14:07.372Z,50.67
2018-01-02T22:16:33.328Z,50.34
2018-01-02T22:18:59.310Z,50.48
2018-01-02T22:21:25.393Z,50.71
2018-01-02T22:23:51.385Z,50.49
2018-01-02T22:26:17.330Z,50.24
2018-01-02T22:28:43.292Z,50.69
2018-01-02T22:31:09.261Z,50.50
2018-01-02T22:33:35.206Z,50.80
2018-01-02T22:36:01.181Z,50.86
2018-01-02T22:38:27.157Z,50.80
2018-01-02T22:40:53.113Z,50.76
2018-01-02T22:43:19.156Z,50.89
2018-01-02T22:45:45.125Z,50.86
2018-01-02T22:48:11.088Z,50.68
2018-01-02T22:50:37.058Z,50.77
2018-01-02T22:53:03.021Z,51.15
2018-01-02T22:55:28.970Z,50.57
2018-01-02T22:57:55.065Z,50.36
2018-01-02T23:00:20.992Z,50.44
2018-01-02T23:02:46.935Z,50.72
2018-01-02T23:05:12.897Z,50.60
2018-01-02T23:07:38.927Z,50.51
2018-01-02T23:10:04.895Z,50.35
2018-01-02T23:12:30.836Z,50.54
2018-01-02T23:14:56.793Z,50.54
2018-01-02T23:17:22.741Z,50.30
2018-01-02T23:19:48.726Z,50.81
2018-01-02T23:22:14.737Z,50.74
2018-01-02T23:24:40.698Z,50.97
2018-01-02T23:27:06.656Z,50.80
2018-01-02T23:29:32.669Z,50.87
2018-01-02T23:31:58.646Z,50.94
2018-01-02T23:34:24.620Z,51.04
2018-01-02T23:36:50.966Z,51.13
2018-01-02T23:39:16.899Z,51.20
2018-01-02T23:41:42.865Z,50.90
2018-01-02T23:44:08.838Z,50.78
2018-01-02T23:46:34.804Z,51.59
2018-01-02T23:49:00.772Z,50.86
2018-01-02T23:51:26.745Z,51.01
2018-01-02T23:53:52.685Z,51.08
2018-01-02T23:56:18.751Z,50.88
2018-01-02T23:58:44.685Z,50.83
